createdAt,value
2022-09-24T00:01:27.437Z,4.80
2022-09-24T00:04:00.577Z,4.77
2022-09-24T00:06:29.595Z,4.74
2022-09-24T00:08:57.182Z,4.70
2022-09-24T00:11:26.395Z,4.68
2022-09-24T00:13:53.567Z,4.66
2022-09-24T00:16:21.956Z,4.63
2022-09-24T00:18:48.703Z,4.59
2022-09-24T00:21:21.658Z,4.56
2022-09-24T00:23:53.561Z,4.52
2022-09-24T00:26:39.974Z,4.45
2022-09-24T00:29:08.100Z,4.32
2022-09-24T00:31:34.795Z,4.25
2022-09-24T00:34:01.864Z,4.16
2022-09-24T00:36:28.567Z,4.08
2022-09-24T00:38:59.787Z,4.02
2022-09-24T00:41:29.413Z,3.99
2022-09-24T00:43:56.724Z,3.96
2022-09-24T00:46:32.288Z,3.95
2022-09-24T00:49:02.863Z,3.92
2022-09-24T00:51:31.141Z,3.91
2022-09-24T00:54:04.455Z,3.89
2022-09-24T00:56:33.943Z,3.91
2022-09-24T00:59:02.564Z,3.83
2022-09-24T01:01:32.504Z,3.81
2022-09-24T01:04:01.424Z,3.83
2022-09-24T01:06:28.453Z,3.85
2022-09-24T01:08:56.686Z,3.88
2022-09-24T01:11:23.175Z,3.86
2022-09-24T01:13:55.560Z,3.85
2022-09-24T01:16:41.177Z,3.83
2022-09-24T01:19:29.446Z,3.83
2022-09-24T01:22:07.285Z,3.83
2022-09-24T01:25:26.455Z,3.81
2022-09-24T01:28:02.574Z,3.75
2022-09-24T01:30:34.258Z,3.74
2022-09-24T01:33:03.646Z,3.76
2022-09-24T01:35:44.248Z,3.82
2022-09-24T01:38:45.760Z,3.82
2022-09-24T01:41:16.017Z,3.77
2022-09-24T01:43:46.484Z,3.70
2022-09-24T01:46:14.409Z,3.70
2022-09-24T01:48:41.481Z,3.71
2022-09-24T01:51:16.493Z,3.70
2022-09-24T01:53:54.627Z,3.54
2022-09-24T01:56:27.178Z,3.45
2022-09-24T01:59:04.822Z,3.22
2022-09-24T02:01:42.530Z,3.19
2022-09-24T02:04:16.748Z,3.20
2022-09-24T02:06:54.767Z,3.22
2022-09-24T02:09:42.789Z,3.20
2022-09-24T02:12:11.451Z,3.21
2022-09-24T02:14:48.112Z,3.21
2022-09-24T02:17:15.194Z,3.24
2022-09-24T02:19:42.503Z,3.25
2022-09-24T02:22:11.764Z,3.17
2022-09-24T02:24:51.305Z,3.09
2022-09-24T02:27:18.567Z,3.15
2022-09-24T02:29:46.292Z,3.13
2022-09-24T02:32:18.188Z,3.11
2022-09-24T02:34:50.200Z,3.13
2022-09-24T02:37:17.297Z,3.14
2022-09-24T02:39:44.131Z,3.13
2022-09-24T02:42:13.705Z,3.10
2022-09-24T02:44:40.474Z,3.11
2022-09-24T02:47:07.605Z,3.08
2022-09-24T02:49:34.352Z,3.08
2022-09-24T02:52:01.055Z,2.90
2022-09-24T02:54:27.591Z,2.86
2022-09-24T02:56:54.174Z,2.87
2022-09-24T02:59:20.687Z,2.92
2022-09-24T03:01:47.498Z,2.92
2022-09-24T03:04:15.663Z,2.94
2022-09-24T03:06:42.872Z,2.89
2022-09-24T03:09:12.798Z,2.85
2022-09-24T03:11:39.314Z,2.86
2022-09-24T03:14:05.962Z,2.89
2022-09-24T03:16:33.678Z,2.84
2022-09-24T03:19:00.311Z,2.90
2022-09-24T03:21:26.865Z,2.86
2022-09-24T03:23:53.595Z,2.85
2022-09-24T03:26:20.158Z,2.84
2022-09-24T03:28:46.645Z,2.85
2022-09-24T03:31:13.997Z,2.82
2022-09-24T03:33:43.379Z,2.79
2022-09-24T03:36:24.495Z,2.79
2022-09-24T03:38:56.952Z,2.64
2022-09-24T03:41:28.369Z,2.64
2022-09-24T03:43:56.056Z,2.66
2022-09-24T03:46:30.157Z,2.67
2022-09-24T03:48:59.268Z,2.72
2022-09-24T03:51:26.009Z,2.72
2022-09-24T03:53:52.585Z,2.71
2022-09-24T03:56:19.103Z,2.74
2022-09-24T03:58:48.214Z,2.70
2022-09-24T04:01:21.257Z,2.68
2022-09-24T04:03:48.964Z,2.66
2022-09-24T04:06:16.021Z,2.64
2022-09-24T04:08:42.631Z,2.64
2022-09-24T04:11:09.164Z,2.59
2022-09-24T04:13:35.810Z,2.56
2022-09-24T04:16:04.040Z,2.55
2022-09-24T04:18:33.621Z,2.54
2022-09-24T04:21:02.228Z,2.54
2022-09-24T04:23:31.491Z,2.49
2022-09-24T04:26:02.324Z,2.48
2022-09-24T04:28:30.149Z,2.47
2022-09-24T04:30:57.093Z,2.45
2022-09-24T04:33:23.614Z,2.41
2022-09-24T04:35:50.112Z,2.42
2022-09-24T04:38:16.626Z,2.44
2022-09-24T04:40:43.897Z,2.40
2022-09-24T04:43:10.432Z,2.35
2022-09-24T04:45:37.448Z,2.37
2022-09-24T04:48:04.048Z,2.37
2022-09-24T04:50:34.609Z,2.30
2022-09-24T04:53:02.356Z,2.26
2022-09-24T04:55:28.869Z,2.28
2022-09-24T04:57:56.818Z,2.33
2022-09-24T05:00:24.368Z,2.34
2022-09-24T05:03:03.863Z,2.38
2022-09-24T05:05:32.306Z,2.43
2022-09-24T05:07:59.414Z,2.51
2022-09-24T05:10:26.152Z,2.62
2022-09-24T05:12:53.203Z,2.70
2022-09-24T05:15:20.028Z,2.77
2022-09-24T05:17:46.906Z,2.87
2022-09-24T05:20:15.179Z,2.97
2022-09-24T05:22:46.545Z,3.05
2022-09-24T05:25:14.316Z,3.13
2022-09-24T05:27:48.853Z,3.22
2022-09-24T05:30:15.912Z,3.32
2022-09-24T05:32:42.814Z,3.42
2022-09-24T05:35:09.742Z,3.52
2022-09-24T05:37:37.410Z,3.60
2022-09-24T05:40:24.528Z,3.70
2022-09-24T05:42:52.010Z,3.79
2022-09-24T05:45:18.835Z,3.88
2022-09-24T05:47:46.294Z,3.96
2022-09-24T05:50:14.117Z,4.05
2022-09-24T05:52:41.434Z,4.13
2022-09-24T05:55:09.420Z,4.22
2022-09-24T05:57:36.083Z,4.32
2022-09-24T06:00:03.885Z,4.44
2022-09-24T06:02:30.406Z,4.55
2022-09-24T06:04:56.910Z,4.67
2022-09-24T06:07:23.618Z,4.81
2022-09-24T06:09:50.768Z,4.94
2022-09-24T06:12:18.082Z,5.07
2022-09-24T06:14:44.599Z,5.22
2022-09-24T06:17:11.397Z,5.37
2022-09-24T06:19:39.287Z,5.51
2022-09-24T06:22:05.798Z,5.70
2022-09-24T06:24:32.332Z,5.88
2022-09-24T06:26:58.818Z,6.06
2022-09-24T06:29:25.435Z,6.24
2022-09-24T06:31:53.889Z,6.49
2022-09-24T06:34:20.435Z,6.74
2022-09-24T06:36:47.006Z,6.92
2022-09-24T06:39:13.493Z,7.16
2022-09-24T06:41:39.978Z,7.44
2022-09-24T06:44:06.488Z,7.60
2022-09-24T06:46:33.017Z,7.77
2022-09-24T06:48:59.527Z,7.95
2022-09-24T06:51:26.056Z,8.09
2022-09-24T06:53:52.806Z,8.22
2022-09-24T06:56:19.923Z,8.35
2022-09-24T06:58:46.587Z,8.41
2022-09-24T07:01:13.322Z,8.50
2022-09-24T07:03:40.267Z,8.61
2022-09-24T07:06:07.319Z,8.69
2022-09-24T07:08:34.162Z,8.81
2022-09-24T07:11:01.596Z,8.91
2022-09-24T07:13:28.163Z,9.06
2022-09-24T07:15:54.735Z,9.19
2022-09-24T07:18:21.566Z,9.35
2022-09-24T07:20:55.718Z,9.52
2022-09-24T07:23:23.261Z,9.70
2022-09-24T07:25:51.171Z,9.90
2022-09-24T07:28:18.847Z,9.97
2022-09-24T07:30:45.353Z,10.06
2022-09-24T07:33:11.844Z,10.19
2022-09-24T07:35:39.413Z,10.30
2022-09-24T07:38:15.589Z,10.44
2022-09-24T07:40:42.418Z,10.56
2022-09-24T07:43:13.978Z,10.68
2022-09-24T07:45:41.915Z,10.75
2022-09-24T07:48:10.372Z,10.87
2022-09-24T07:50:41.505Z,11.00
2022-09-24T07:53:11.773Z,11.17
2022-09-24T07:55:41.111Z,11.31
2022-09-24T07:58:14.981Z,11.39
2022-09-24T08:00:42.709Z,11.45
2022-09-24T08:03:09.268Z,11.55
2022-09-24T08:05:36.038Z,11.64
2022-09-24T08:08:02.692Z,11.74
2022-09-24T08:10:29.409Z,11.87
2022-09-24T08:12:58.915Z,11.92
2022-09-24T08:15:25.989Z,12.04
2022-09-24T08:17:53.061Z,12.19
2022-09-24T08:20:19.628Z,12.36
2022-09-24T08:22:46.106Z,12.51
2022-09-24T08:25:12.706Z,12.66
2022-09-24T08:27:39.333Z,12.74
2022-09-24T08:30:06.702Z,12.78
2022-09-24T08:32:33.279Z,12.92
2022-09-24T08:34:59.838Z,13.07
2022-09-24T08:37:28.278Z,13.20
2022-09-24T08:39:55.406Z,13.38
2022-09-24T08:42:40.750Z,13.60
2022-09-24T08:45:27.751Z,13.80
2022-09-24T08:48:10.100Z,13.96
2022-09-24T08:50:39.607Z,14.23
2022-09-24T08:53:11.911Z,14.44
2022-09-24T08:55:45.181Z,14.59
2022-09-24T08:58:17.440Z,14.76
2022-09-24T09:00:54.394Z,14.95
2022-09-24T09:03:39.018Z,15.20
2022-09-24T09:06:30.182Z,15.34
2022-09-24T09:09:08.111Z,15.52
2022-09-24T09:11:37.981Z,15.62
2022-09-24T09:14:12.468Z,15.73
2022-09-24T09:17:49.896Z,15.79
2022-09-24T09:20:21.522Z,15.87
2022-09-24T09:22:50.218Z,15.83
2022-09-24T09:25:29.879Z,15.92
2022-09-24T09:28:15.310Z,16.17
2022-09-24T09:30:51.102Z,16.40
2022-09-24T09:33:25.099Z,16.44
2022-09-24T09:35:59.999Z,16.57
2022-09-24T09:38:55.611Z,16.73
2022-09-24T09:41:41.643Z,16.90
2022-09-24T09:44:16.200Z,16.99
2022-09-24T09:46:50.461Z,17.20
2022-09-24T09:49:17.896Z,17.39
2022-09-24T09:51:50.651Z,17.72
2022-09-24T09:54:17.141Z,17.89
2022-09-24T09:56:49.747Z,17.96
2022-09-24T09:59:27.218Z,17.98
2022-09-24T10:01:56.526Z,18.05
2022-09-24T10:04:35.566Z,18.12
2022-09-24T10:07:16.954Z,18.25
2022-09-24T10:09:45.413Z,18.33
2022-09-24T10:12:22.038Z,18.36
2022-09-24T10:15:03.128Z,18.38
2022-09-24T10:17:38.478Z,18.37
2022-09-24T10:20:27.626Z,18.22
2022-09-24T10:22:58.659Z,18.14
2022-09-24T10:25:30.653Z,18.23
2022-09-24T10:28:21.064Z,18.36
2022-09-24T10:31:14.934Z,18.39
2022-09-24T10:33:45.524Z,18.45
2022-09-24T10:36:28.712Z,18.57
2022-09-24T10:39:07.339Z,18.76
2022-09-24T10:41:33.883Z,18.91
2022-09-24T10:44:05.455Z,19.07
2022-09-24T10:46:43.963Z,19.24
2022-09-24T10:49:22.662Z,19.53
2022-09-24T10:52:09.697Z,19.76
2022-09-24T10:55:12.142Z,20.03
2022-09-24T10:57:57.633Z,19.92
2022-09-24T11:00:38.207Z,19.84
2022-09-24T11:03:17.571Z,20.18
2022-09-24T11:06:14.660Z,20.45
2022-09-24T11:08:49.979Z,20.79
2022-09-24T11:11:36.968Z,21.11
2022-09-24T11:14:40.796Z,21.31
2022-09-24T11:17:33.556Z,21.55
2022-09-24T11:20:12.039Z,21.81
2022-09-24T11:22:44.336Z,22.20
2022-09-24T11:25:52.584Z,22.76
2022-09-24T11:28:41.844Z,23.17
2022-09-24T11:31:14.602Z,23.49
2022-09-24T11:34:22.704Z,23.12
2022-09-24T11:37:20.018Z,23.48
2022-09-24T11:40:04.851Z,24.00
2022-09-24T11:42:43.106Z,24.18
2022-09-24T11:45:47.832Z,24.45
2022-09-24T11:48:31.397Z,25.23
2022-09-24T11:51:20.875Z,25.65
2022-09-24T11:54:07.332Z,26.06
2022-09-24T11:56:46.223Z,25.38
2022-09-24T11:59:34.479Z,25.39
2022-09-24T12:02:13.076Z,25.15
2022-09-24T12:04:53.215Z,24.75
2022-09-24T12:07:31.972Z,23.86
2022-09-24T12:10:24.965Z,23.22
2022-09-24T12:12:57.590Z,22.88
2022-09-24T12:15:30.787Z,22.26
2022-09-24T12:18:11.502Z,22.15
2022-09-24T12:21:07.136Z,21.54
2022-09-24T12:23:39.592Z,21.18
2022-09-24T12:26:07.652Z,21.25
2022-09-24T12:29:01.764Z,21.41
2022-09-24T12:32:01.059Z,21.24
2022-09-24T12:34:45.727Z,21.15
2022-09-24T12:37:18.459Z,21.10
2022-09-24T12:39:58.071Z,20.88
2022-09-24T12:42:34.719Z,20.77
2022-09-24T12:45:03.084Z,20.59
2022-09-24T12:47:34.539Z,20.52
2022-09-24T12:50:04.929Z,20.37
2022-09-24T12:52:42.774Z,20.05
2022-09-24T12:55:20.290Z,19.85
2022-09-24T12:57:54.517Z,19.66
2022-09-24T13:00:39.729Z,19.47
2022-09-24T13:03:27.265Z,19.38
2022-09-24T13:05:55.521Z,19.30
2022-09-24T13:08:26.743Z,19.25
2022-09-24T13:11:05.719Z,19.13
2022-09-24T13:13:40.941Z,19.12
2022-09-24T13:16:20.603Z,19.23
2022-09-24T13:18:56.270Z,19.24
2022-09-24T13:21:28.299Z,19.26
2022-09-24T13:23:55.671Z,19.37
2022-09-24T13:26:24.859Z,19.48
2022-09-24T13:28:58.589Z,19.68
2022-09-24T13:31:52.652Z,19.83
2022-09-24T13:34:27.263Z,19.88
2022-09-24T13:37:23.603Z,19.95
2022-09-24T13:40:01.573Z,20.03
2022-09-24T13:42:35.903Z,20.02
2022-09-24T13:45:09.590Z,19.92
2022-09-24T13:47:55.956Z,19.77
2022-09-24T13:50:38.931Z,19.62
2022-09-24T13:53:24.063Z,19.40
2022-09-24T13:55:54.818Z,19.28
2022-09-24T13:58:27.794Z,19.21
2022-09-24T14:00:55.133Z,19.20
2022-09-24T14:03:33.423Z,19.08
2022-09-24T14:06:01.387Z,18.99
2022-09-24T14:08:29.979Z,18.85
2022-09-24T14:11:13.323Z,18.72
2022-09-24T14:13:45.653Z,18.65
2022-09-24T14:16:20.661Z,18.57
2022-09-24T14:18:48.384Z,18.46
2022-09-24T14:21:33.253Z,18.38
2022-09-24T14:24:05.963Z,18.38
2022-09-24T14:26:51.070Z,18.32
2022-09-24T14:29:22.726Z,18.27
2022-09-24T14:31:53.248Z,18.24
2022-09-24T14:34:43.085Z,18.24
2022-09-24T14:37:22.730Z,18.18
2022-09-24T14:39:57.251Z,18.21
2022-09-24T14:42:26.693Z,18.16
2022-09-24T14:44:54.731Z,18.15
2022-09-24T14:47:28.629Z,18.17
2022-09-24T14:49:56.159Z,18.15
2022-09-24T14:52:56.676Z,18.12
2022-09-24T14:55:38.971Z,18.13
2022-09-24T14:58:05.948Z,18.14
2022-09-24T15:00:46.371Z,18.10
2022-09-24T15:03:16.175Z,18.15
2022-09-24T15:05:44.992Z,18.21
2022-09-24T15:08:23.894Z,18.23
2022-09-24T15:10:57.996Z,18.20
2022-09-24T15:13:27.183Z,18.17
2022-09-24T15:16:42.312Z,18.13
2022-09-24T15:19:30.743Z,18.02
2022-09-24T15:21:58.728Z,17.99
2022-09-24T15:24:25.398Z,17.87
2022-09-24T15:27:06.874Z,17.81
2022-09-24T15:29:33.471Z,17.70
2022-09-24T15:32:00.268Z,17.61
2022-09-24T15:34:28.373Z,17.56
2022-09-24T15:36:59.091Z,17.55
2022-09-24T15:39:27.480Z,17.52
2022-09-24T15:41:54.231Z,17.48
2022-09-24T15:44:23.812Z,17.44
2022-09-24T15:46:51.337Z,17.40
2022-09-24T15:49:22.268Z,17.38
2022-09-24T15:52:25.972Z,17.31
2022-09-24T15:54:55.391Z,17.26
2022-09-24T15:57:22.711Z,17.25
2022-09-24T15:59:49.910Z,17.21
2022-09-24T16:02:19.518Z,17.18
2022-09-24T16:04:46.483Z,17.15
2022-09-24T16:07:13.313Z,17.12
2022-09-24T16:09:40.852Z,17.07
2022-09-24T16:12:07.344Z,16.98
2022-09-24T16:14:33.890Z,16.92
2022-09-24T16:17:00.430Z,16.88
2022-09-24T16:19:27.313Z,16.83
2022-09-24T16:21:53.862Z,16.85
2022-09-24T16:24:20.467Z,16.83
2022-09-24T16:26:47.007Z,16.71
2022-09-24T16:29:13.472Z,16.67
2022-09-24T16:31:40.024Z,16.61
2022-09-24T16:34:06.595Z,16.49
2022-09-24T16:36:33.102Z,16.42
2022-09-24T16:39:00.192Z,16.40
2022-09-24T16:41:26.682Z,16.38
2022-09-24T16:43:56.929Z,16.27
2022-09-24T16:46:23.648Z,16.18
2022-09-24T16:48:50.314Z,16.14
2022-09-24T16:51:17.405Z,16.02
2022-09-24T16:53:48.507Z,15.98
2022-09-24T16:56:17.380Z,15.93
2022-09-24T16:58:45.719Z,15.77
2022-09-24T17:01:15.708Z,15.75
2022-09-24T17:03:42.838Z,15.72
2022-09-24T17:06:17.564Z,15.70
2022-09-24T17:09:02.530Z,15.66
2022-09-24T17:11:29.051Z,15.62
2022-09-24T17:13:56.349Z,15.59
2022-09-24T17:16:25.039Z,15.67
2022-09-24T17:18:54.373Z,15.66
2022-09-24T17:21:22.207Z,15.64
2022-09-24T17:23:49.407Z,15.63
2022-09-24T17:26:18.418Z,15.59
2022-09-24T17:28:47.248Z,15.55
2022-09-24T17:31:16.769Z,15.60
2022-09-24T17:33:44.494Z,15.61
2022-09-24T17:36:12.817Z,15.64
2022-09-24T17:38:39.547Z,15.56
2022-09-24T17:41:08.499Z,15.48
2022-09-24T17:43:35.528Z,15.43
2022-09-24T17:46:13.891Z,15.39
2022-09-24T17:48:44.574Z,15.29
2022-09-24T17:51:15.596Z,15.21
2022-09-24T17:53:42.684Z,15.12
2022-09-24T17:56:12.378Z,15.11
2022-09-24T17:58:44.595Z,15.09
2022-09-24T18:01:13.962Z,15.05
2022-09-24T18:03:41.185Z,14.99
2022-09-24T18:06:10.068Z,14.97
2022-09-24T18:08:41.912Z,14.96
2022-09-24T18:11:18.203Z,14.84
2022-09-24T18:13:49.367Z,14.82
2022-09-24T18:16:17.670Z,14.81
2022-09-24T18:18:45.112Z,14.71
2022-09-24T18:21:13.678Z,14.72
2022-09-24T18:23:40.474Z,14.66
2022-09-24T18:26:08.903Z,14.62
2022-09-24T18:28:35.455Z,14.56
2022-09-24T18:31:03.564Z,14.55
2022-09-24T18:33:30.160Z,14.53
2022-09-24T18:35:56.668Z,14.55
2022-09-24T18:38:23.139Z,14.55
2022-09-24T18:40:49.758Z,14.48
2022-09-24T18:43:16.272Z,14.47
2022-09-24T18:45:42.816Z,14.48
2022-09-24T18:48:09.340Z,14.41
2022-09-24T18:50:43.099Z,14.41
2022-09-24T18:53:09.768Z,14.40
2022-09-24T18:55:40.928Z,14.33
2022-09-24T18:58:08.519Z,14.28
2022-09-24T19:00:49.833Z,14.22
2022-09-24T19:03:23.595Z,14.12
2022-09-24T19:05:51.850Z,14.11
2022-09-24T19:08:20.281Z,14.05
2022-09-24T19:10:47.955Z,14.03
2022-09-24T19:13:16.167Z,14.00
2022-09-24T19:15:43.318Z,14.00
2022-09-24T19:18:14.073Z,13.95
2022-09-24T19:20:42.966Z,13.95
2022-09-24T19:23:10.099Z,13.87
2022-09-24T19:25:38.331Z,13.82
2022-09-24T19:28:07.379Z,13.84
2022-09-24T19:30:45.776Z,13.72
2022-09-24T19:33:15.751Z,13.67
2022-09-24T19:35:52.000Z,13.60
2022-09-24T19:38:18.496Z,13.56
2022-09-24T19:40:55.032Z,13.56
2022-09-24T19:43:22.426Z,13.51
2022-09-24T19:45:58.162Z,13.43
2022-09-24T19:48:26.737Z,13.41
2022-09-24T19:50:54.361Z,13.36
2022-09-24T19:53:21.371Z,13.33
2022-09-24T19:55:47.879Z,13.23
2022-09-24T19:58:15.637Z,13.18
2022-09-24T20:00:43.127Z,13.14
2022-09-24T20:03:11.177Z,13.15
2022-09-24T20:05:38.300Z,13.13
2022-09-24T20:08:04.852Z,13.09
2022-09-24T20:10:31.431Z,13.07
2022-09-24T20:12:58.259Z,13.00
2022-09-24T20:15:24.832Z,12.97
2022-09-24T20:17:51.336Z,12.88
2022-09-24T20:20:18.207Z,12.82
2022-09-24T20:22:44.677Z,12.75
2022-09-24T20:25:12.904Z,12.68
2022-09-24T20:27:51.674Z,12.60
2022-09-24T20:30:23.845Z,12.58
2022-09-24T20:32:50.999Z,12.55
2022-09-24T20:35:17.698Z,12.60
2022-09-24T20:37:44.752Z,12.54
2022-09-24T20:40:11.671Z,12.40
2022-09-24T20:42:38.972Z,12.34
2022-09-24T20:45:07.356Z,12.34
2022-09-24T20:47:33.857Z,12.29
2022-09-24T20:50:00.376Z,12.27
2022-09-24T20:52:27.022Z,12.18
2022-09-24T20:54:53.503Z,12.14
2022-09-24T20:57:20.002Z,12.18
2022-09-24T20:59:48.797Z,12.19
2022-09-24T21:02:15.637Z,12.13
2022-09-24T21:04:42.196Z,12.06
2022-09-24T21:07:08.865Z,12.03
2022-09-24T21:09:35.420Z,11.92
2022-09-24T21:12:03.422Z,11.97
2022-09-24T21:14:29.909Z,11.90
2022-09-24T21:16:56.513Z,11.88
2022-09-24T21:19:22.991Z,11.87
2022-09-24T21:21:50.552Z,11.85
2022-09-24T21:24:17.095Z,11.81
2022-09-24T21:26:45.153Z,11.85
2022-09-24T21:29:17.904Z,11.81
2022-09-24T21:31:46.916Z,11.74
2022-09-24T21:34:16.049Z,11.69
2022-09-24T21:36:45.621Z,11.73
2022-09-24T21:39:17.795Z,11.71
2022-09-24T21:41:49.786Z,11.59
2022-09-24T21:44:19.867Z,11.57
2022-09-24T21:46:47.769Z,11.62
2022-09-24T21:49:14.325Z,11.60
2022-09-24T21:51:41.936Z,11.65
2022-09-24T21:54:13.177Z,11.64
2022-09-24T21:56:40.027Z,11.61
2022-09-24T21:59:26.523Z,11.61
2022-09-24T22:01:53.504Z,11.58
2022-09-24T22:04:20.329Z,11.55
2022-09-24T22:06:48.360Z,11.58
2022-09-24T22:09:15.629Z,11.58
2022-09-24T22:11:43.013Z,11.51
2022-09-24T22:14:11.661Z,11.54
2022-09-24T22:16:38.595Z,11.53
2022-09-24T22:19:07.376Z,11.49
2022-09-24T22:21:34.054Z,11.47
2022-09-24T22:24:01.069Z,11.48
2022-09-24T22:26:29.594Z,11.44
2022-09-24T22:28:56.729Z,11.45
2022-09-24T22:31:23.506Z,11.40
2022-09-24T22:34:08.612Z,11.39
2022-09-24T22:36:36.087Z,11.38
2022-09-24T22:39:04.403Z,11.38
2022-09-24T22:41:32.624Z,11.34
2022-09-24T22:43:59.406Z,11.33
2022-09-24T22:46:27.266Z,11.32
2022-09-24T22:48:54.998Z,11.32
2022-09-24T22:51:22.145Z,11.33
2022-09-24T22:53:48.667Z,11.31
2022-09-24T22:56:18.342Z,11.25
2022-09-24T22:58:49.924Z,11.19
2022-09-24T23:01:22.911Z,11.12
2022-09-24T23:03:55.347Z,11.06
2022-09-24T23:06:22.187Z,11.01
2022-09-24T23:08:49.426Z,11.04
2022-09-24T23:11:25.270Z,11.04
2022-09-24T23:13:55.943Z,10.99
2022-09-24T23:16:25.250Z,10.91
2022-09-24T23:18:54.781Z,10.87
2022-09-24T23:21:23.410Z,10.83
2022-09-24T23:24:01.293Z,10.76
2022-09-24T23:26:28.747Z,10.71
2022-09-24T23:28:56.797Z,10.73
2022-09-24T23:31:27.454Z,10.70
2022-09-24T23:33:56.355Z,10.64
2022-09-24T23:36:24.587Z,10.61
2022-09-24T23:38:51.234Z,10.59
2022-09-24T23:41:17.739Z,10.51
2022-09-24T23:43:44.277Z,10.47
2022-09-24T23:46:11.381Z,10.44
2022-09-24T23:48:38.338Z,10.38
2022-09-24T23:51:06.392Z,10.35
2022-09-24T23:53:34.242Z,10.31
2022-09-24T23:56:02.126Z,10.30
2022-09-24T23:58:29.291Z,10.28
